Time;durP1;ratioP1;P1;durP2;ratioP2;P2;SDS_P1;SDS_P2;PMS_P1;PMS_P2;Temp;Humidity;BMP_temperature;BMP_pressure;BME280_temperature;BME280_humidity;BME280_pressure;Samples;Min_cycle;Max_cycle;Signal;HPM_P1;HPM_P2
2024/03/11 00:00:05;;;;;;;;;;;12.00;60.50;;;;;;6310649;22;19923;-79
2024/03/11 00:02:32;;;;;;;;;;;12.00;61.30;;;;;;6337645;22;19930;-78
2024/03/11 00:04:59;;;;;;;;;;;11.90;61.70;;;;;;6337878;22;19929;-78
2024/03/11 00:07:30;;;;;;;;;;;11.80;61.90;;;;;;6337943;22;19992;-78
2024/03/11 00:09:57;;;;;;;;;;;11.70;61.80;;;;;;6310621;22;19918;-78
2024/03/11 00:12:23;;;;;;;;;;;11.70;62.60;;;;;;6310292;22;19949;-78
2024/03/11 00:14:51;;;;;;;;;;;11.60;62.90;;;;;;6310592;22;19918;-78
2024/03/11 00:17:21;;;;;;;;;;;11.50;62.80;;;;;;6310500;22;19993;-78
2024/03/11 00:19:49;;;;;;;;;;;11.50;64.00;;;;;;6311124;22;19922;-78
2024/03/11 00:22:16;;;;;;;;;;;11.40;63.20;;;;;;6310727;22;19973;-78
2024/03/11 00:24:43;;;;;;;;;;;11.40;63.60;;;;;;6311463;22;19954;-78
2024/03/11 00:27:10;;;;;;;;;;;11.20;63.60;;;;;;6310938;22;19934;-78
2024/03/11 00:29:37;;;;;;;;;;;11.20;64.60;;;;;;6311280;22;20088;-77
2024/03/11 00:32:07;;;;;;;;;;;11.20;64.30;;;;;;6310828;22;19922;-78
2024/03/11 00:34:34;;;;;;;;;;;11.10;64.10;;;;;;6310694;22;19928;-78
2024/03/11 00:37:01;;;;;;;;;;;11.00;64.10;;;;;;6311084;22;19985;-78
2024/03/11 00:39:28;;;;;;;;;;;11.00;64.40;;;;;;6312646;22;19918;-78
2024/03/11 00:41:55;;;;;;;;;;;10.90;64.30;;;;;;6312299;22;19933;-78
2024/03/11 00:44:23;;;;;;;;;;;10.90;64.10;;;;;;6339246;22;19919;-78
2024/03/11 00:46:50;;;;;;;;;;;10.90;64.20;;;;;;6339676;22;19919;-78
2024/03/11 00:49:19;;;;;;;;;;;10.80;64.20;;;;;;6312391;22;19930;-78
2024/03/11 00:51:46;;;;;;;;;;;10.80;64.10;;;;;;6312168;22;19929;-78
2024/03/11 00:54:13;;;;;;;;;;;10.70;64.00;;;;;;6312114;22;19918;-77
2024/03/11 00:56:43;;;;;;;;;;;10.70;64.40;;;;;;6312313;22;19918;-78
2024/03/11 00:59:10;;;;;;;;;;;10.60;64.20;;;;;;6312188;22;19942;-78
2024/03/11 01:01:37;;;;;;;;;;;10.60;64.70;;;;;;6312540;22;20308;-78
2024/03/11 01:04:09;;;;;;;;;;;10.60;64.80;;;;;;6339502;22;19952;-78
2024/03/11 01:06:36;;;;;;;;;;;10.50;65.10;;;;;;6339139;22;20304;-78
2024/03/11 01:09:03;;;;;;;;;;;10.50;65.70;;;;;;6312157;22;19919;-78
2024/03/11 01:11:32;;;;;;;;;;;10.40;65.70;;;;;;6312474;22;19918;-78
2024/03/11 01:13:59;;;;;;;;;;;10.40;65.70;;;;;;6312898;22;19922;-78
2024/03/11 01:16:26;;;;;;;;;;;10.30;65.60;;;;;;6312101;22;19926;-78
2024/03/11 01:18:53;;;;;;;;;;;10.30;66.00;;;;;;6339461;22;19918;-78
2024/03/11 01:21:21;;;;;;;;;;;10.20;65.70;;;;;;6311980;22;19918;-78
2024/03/11 01:23:47;;;;;;;;;;;10.20;66.30;;;;;;6312187;22;19923;-78
2024/03/11 01:26:15;;;;;;;;;;;10.10;66.20;;;;;;6339025;22;19919;-78
2024/03/11 01:28:41;;;;;;;;;;;10.10;66.50;;;;;;6338509;22;19922;-78
2024/03/11 01:31:10;;;;;;;;;;;10.10;66.30;;;;;;6338705;22;20288;-78
2024/03/11 01:33:37;;;;;;;;;;;10.10;66.20;;;;;;6312432;22;19942;-78
2024/03/11 01:36:04;;;;;;;;;;;10.10;66.60;;;;;;6312272;22;19929;-77
2024/03/11 01:38:31;;;;;;;;;;;10.10;67.50;;;;;;6338779;22;19991;-77
2024/03/11 01:40:58;;;;;;;;;;;10.00;67.00;;;;;;6311548;22;19956;-78
2024/03/11 01:43:25;;;;;;;;;;;10.00;67.00;;;;;;6312097;22;19922;-78
2024/03/11 01:45:53;;;;;;;;;;;10.00;67.20;;;;;;6339145;22;19942;-78
2024/03/11 01:48:20;;;;;;;;;;;10.00;67.10;;;;;;6338702;22;19938;-78
2024/03/11 01:50:48;;;;;;;;;;;9.90;68.50;;;;;;6312631;22;20353;-78
2024/03/11 01:53:17;;;;;;;;;;;9.90;68.40;;;;;;6312583;22;20077;-78
2024/03/11 01:55:46;;;;;;;;;;;9.90;68.40;;;;;;6339537;22;19923;-77
2024/03/11 01:58:16;;;;;;;;;;;9.90;68.60;;;;;;6338545;22;19919;-77
2024/03/11 02:00:43;;;;;;;;;;;9.80;68.50;;;;;;6312489;22;20223;-78
2024/03/11 02:03:11;;;;;;;;;;;9.80;68.60;;;;;;6339139;22;19961;-77
2024/03/11 02:05:41;;;;;;;;;;;9.70;68.60;;;;;;6311778;22;19930;-78
2024/03/11 02:08:08;;;;;;;;;;;9.80;68.80;;;;;;6311915;22;19997;-78
2024/03/11 02:10:36;;;;;;;;;;;9.70;68.70;;;;;;6311526;22;20286;-78
2024/03/11 02:13:04;;;;;;;;;;;9.70;68.70;;;;;;6338923;22;19988;-78
2024/03/11 02:15:31;;;;;;;;;;;9.70;68.90;;;;;;6311678;22;20320;-78
2024/03/11 02:18:00;;;;;;;;;;;9.70;68.70;;;;;;6311909;22;19920;-78
2024/03/11 02:20:28;;;;;;;;;;;9.70;68.90;;;;;;6311451;22;19929;-78
2024/03/11 02:22:59;;;;;;;;;;;9.60;68.80;;;;;;6311888;22;20340;-77
2024/03/11 02:25:30;;;;;;;;;;;9.50;68.90;;;;;;6338824;22;19976;-78
2024/03/11 02:28:03;;;;;;;;;;;9.50;69.10;;;;;;6312032;22;19919;-78
2024/03/11 02:30:30;;;;;;;;;;;9.40;69.50;;;;;;6338918;22;19918;-78
2024/03/11 02:32:58;;;;;;;;;;;9.30;70.10;;;;;;6312415;22;19922;-77
2024/03/11 02:35:26;;;;;;;;;;;9.30;70.20;;;;;;6311316;22;19926;-77
2024/03/11 02:37:53;;;;;;;;;;;9.30;71.10;;;;;;6338353;22;20288;-78
2024/03/11 02:40:26;;;;;;;;;;;9.20;70.30;;;;;;6311399;22;20320;-78
2024/03/11 02:42:53;;;;;;;;;;;9.20;70.40;;;;;;6311691;22;20308;-77
2024/03/11 02:45:23;;;;;;;;;;;9.10;69.70;;;;;;6311209;22;19922;-78
2024/03/11 02:47:50;;;;;;;;;;;9.00;70.00;;;;;;6338876;22;20353;-78
2024/03/11 02:50:17;;;;;;;;;;;8.90;70.50;;;;;;6338880;22;19950;-78
2024/03/11 02:52:44;;;;;;;;;;;8.90;70.90;;;;;;6311176;22;19918;-77
2024/03/11 02:55:14;;;;;;;;;;;8.90;71.20;;;;;;6311246;22;19923;-78
2024/03/11 02:57:43;;;;;;;;;;;8.80;71.00;;;;;;6311452;22;19946;-77
2024/03/11 03:00:10;;;;;;;;;;;8.70;71.60;;;;;;6311089;22;19929;-78
2024/03/11 03:02:38;;;;;;;;;;;8.70;71.80;;;;;;6338056;22;20223;-78
2024/03/11 03:05:06;;;;;;;;;;;8.70;72.30;;;;;;6338422;22;19926;-78
2024/03/11 03:07:33;;;;;;;;;;;8.60;71.90;;;;;;6310790;22;19918;-78
2024/03/11 03:10:00;;;;;;;;;;;8.50;72.20;;;;;;6311345;22;19919;-77
2024/03/11 03:12:29;;;;;;;;;;;8.50;72.60;;;;;;6311469;22;19954;-78
2024/03/11 03:14:59;;;;;;;;;;;8.50;72.70;;;;;;6311170;22;19922;-78
2024/03/11 03:17:26;;;;;;;;;;;8.40;72.40;;;;;;6311477;22;19983;-78
2024/03/11 03:19:53;;;;;;;;;;;8.40;72.70;;;;;;6338269;22;19922;-77
2024/03/11 03:22:21;;;;;;;;;;;8.30;72.80;;;;;;6338593;22;19930;-78
2024/03/11 03:24:49;;;;;;;;;;;8.30;72.90;;;;;;6311261;22;19926;-77
2024/03/11 03:27:16;;;;;;;;;;;8.20;72.70;;;;;;6310843;22;19922;-77
2024/03/11 03:29:44;;;;;;;;;;;8.20;72.70;;;;;;6310564;22;19922;-78
2024/03/11 03:32:12;;;;;;;;;;;8.10;73.00;;;;;;6310826;22;20340;-78
2024/03/11 03:34:39;;;;;;;;;;;8.10;73.20;;;;;;6338237;22;20262;-78
2024/03/11 03:37:05;;;;;;;;;;;8.10;72.60;;;;;;6310781;22;19952;-77
2024/03/11 03:39:33;;;;;;;;;;;8.00;72.70;;;;;;6310874;22;19927;-77
2024/03/11 03:42:00;;;;;;;;;;;7.90;73.00;;;;;;6311042;22;19918;-77
2024/03/11 03:44:27;;;;;;;;;;;7.80;73.20;;;;;;6338271;22;19929;-78
2024/03/11 03:46:55;;;;;;;;;;;7.80;73.40;;;;;;6311139;22;19989;-77
2024/03/11 03:49:22;;;;;;;;;;;7.80;73.80;;;;;;6337998;22;19918;-78
2024/03/11 03:51:51;;;;;;;;;;;7.70;73.80;;;;;;6310741;22;19919;-78
2024/03/11 03:54:18;;;;;;;;;;;7.70;73.70;;;;;;6311291;22;19927;-78
2024/03/11 03:56:45;;;;;;;;;;;7.60;73.90;;;;;;6310534;22;19962;-78
2024/03/11 03:59:12;;;;;;;;;;;7.60;74.10;;;;;;6311200;22;19933;-77
2024/03/11 04:01:39;;;;;;;;;;;7.50;74.30;;;;;;6310937;22;19923;-78
2024/03/11 04:04:05;;;;;;;;;;;7.50;74.80;;;;;;6337598;22;19945;-78
2024/03/11 04:06:32;;;;;;;;;;;7.50;74.70;;;;;;6310881;22;19919;-77
2024/03/11 04:08:59;;;;;;;;;;;7.40;74.70;;;;;;6310955;22;19922;-77
2024/03/11 04:11:26;;;;;;;;;;;7.40;75.60;;;;;;6310605;22;19919;-77
2024/03/11 04:13:53;;;;;;;;;;;7.40;74.90;;;;;;6337332;22;19926;-77
2024/03/11 04:16:25;;;;;;;;;;;7.40;74.60;;;;;;6311009;22;19929;-78
2024/03/11 04:18:52;;;;;;;;;;;7.40;75.10;;;;;;6311478;22;20168;-78
2024/03/11 04:21:19;;;;;;;;;;;7.40;74.80;;;;;;6311182;22;19922;-78
2024/03/11 04:23:50;;;;;;;;;;;7.50;74.70;;;;;;6338480;22;20250;-78
2024/03/11 04:26:17;;;;;;;;;;;7.40;74.50;;;;;;6337490;22;19929;-78
2024/03/11 04:28:44;;;;;;;;;;;7.40;74.80;;;;;;6310245;22;19934;-78
2024/03/11 04:31:11;;;;;;;;;;;7.40;74.90;;;;;;6310398;22;19918;-77
2024/03/11 04:33:40;;;;;;;;;;;7.40;74.80;;;;;;6337370;22;19923;-77
2024/03/11 04:36:08;;;;;;;;;;;7.40;75.20;;;;;;6310701;22;19933;-78
2024/03/11 04:38:34;;;;;;;;;;;7.40;75.10;;;;;;6310867;22;19929;-78
2024/03/11 04:41:02;;;;;;;;;;;7.40;75.20;;;;;;6310762;22;19918;-77
2024/03/11 04:43:29;;;;;;;;;;;7.40;75.40;;;;;;6310970;22;19922;-77
2024/03/11 04:45:56;;;;;;;;;;;7.40;75.40;;;;;;6337516;22;19942;-78
2024/03/11 04:48:23;;;;;;;;;;;7.40;75.30;;;;;;6337595;22;20292;-78
2024/03/11 04:50:50;;;;;;;;;;;7.40;75.20;;;;;;6337422;22;19963;-78
2024/03/11 04:53:17;;;;;;;;;;;7.40;75.30;;;;;;6310668;22;19927;-78
2024/03/11 04:55:45;;;;;;;;;;;7.40;75.90;;;;;;6310341;22;19926;-78
2024/03/11 04:58:12;;;;;;;;;;;7.30;75.80;;;;;;6337685;22;19919;-78
2024/03/11 05:00:38;;;;;;;;;;;7.30;76.10;;;;;;6337361;22;20390;-78
2024/03/11 05:03:06;;;;;;;;;;;7.30;76.30;;;;;;6310264;22;20225;-78
2024/03/11 05:05:36;;;;;;;;;;;7.30;76.00;;;;;;6337149;22;19958;-78
2024/03/11 05:08:04;;;;;;;;;;;7.30;75.90;;;;;;6310526;22;19996;-77
2024/03/11 05:10:32;;;;;;;;;;;7.30;76.80;;;;;;6310545;22;19979;-77
2024/03/11 05:12:59;;;;;;;;;;;7.30;76.10;;;;;;6337263;22;19918;-77
2024/03/11 05:15:26;;;;;;;;;;;7.30;76.50;;;;;;6309826;22;20336;-77
2024/03/11 05:17:54;;;;;;;;;;;7.30;76.50;;;;;;6310691;22;19918;-77
2024/03/11 05:20:23;;;;;;;;;;;7.20;76.90;;;;;;6310066;22;19929;-77
2024/03/11 05:22:50;;;;;;;;;;;7.30;77.10;;;;;;6310226;22;19919;-78
2024/03/11 05:25:20;;;;;;;;;;;7.20;77.20;;;;;;6311776;22;19919;-78
2024/03/11 05:27:50;;;;;;;;;;;7.30;77.20;;;;;;6311880;22;19929;-78
2024/03/11 05:30:20;;;;;;;;;;;7.30;77.30;;;;;;6312471;22;19952;-78
2024/03/11 05:32:48;;;;;;;;;;;7.30;77.30;;;;;;6337899;22;19923;-78
2024/03/11 05:35:16;;;;;;;;;;;7.30;77.30;;;;;;6312097;22;19919;-77
2024/03/11 05:37:48;;;;;;;;;;;7.30;77.30;;;;;;6313698;22;20000;-77
2024/03/11 05:40:15;;;;;;;;;;;7.30;77.10;;;;;;6311899;22;19922;-77
2024/03/11 05:42:42;;;;;;;;;;;7.30;77.20;;;;;;6312090;22;19918;-77
2024/03/11 05:45:12;;;;;;;;;;;7.40;77.20;;;;;;6311691;22;19926;-77
2024/03/11 05:47:41;;;;;;;;;;;7.40;77.30;;;;;;6311581;22;19989;-77
2024/03/11 05:50:09;;;;;;;;;;;7.40;77.50;;;;;;6311788;22;20010;-76
2024/03/11 05:52:44;;;;;;;;;;;7.30;77.30;;;;;;6311557;22;19919;-76
2024/03/11 05:55:14;;;;;;;;;;;7.40;77.00;;;;;;6312187;22;19918;-76
2024/03/11 05:57:43;;;;;;;;;;;7.30;76.40;;;;;;6339313;22;20265;-76
2024/03/11 06:00:15;;;;;;;;;;;7.30;76.90;;;;;;6338909;22;19919;-77
2024/03/11 06:02:46;;;;;;;;;;;7.30;77.30;;;;;;6312037;22;19918;-77
2024/03/11 06:05:15;;;;;;;;;;;7.30;77.20;;;;;;6311608;22;20250;-77
2024/03/11 06:07:42;;;;;;;;;;;7.30;77.30;;;;;;6338390;22;20300;-76
2024/03/11 06:10:12;;;;;;;;;;;7.40;77.50;;;;;;6338301;22;20642;-77
2024/03/11 06:12:43;;;;;;;;;;;7.40;77.10;;;;;;6338665;22;19923;-77
2024/03/11 06:15:11;;;;;;;;;;;7.50;77.10;;;;;;6311582;22;20262;-77
2024/03/11 06:17:38;;;;;;;;;;;7.60;76.90;;;;;;6311941;22;19922;-77
2024/03/11 06:20:09;;;;;;;;;;;7.60;77.00;;;;;;6311848;22;19928;-77
2024/03/11 06:22:39;;;;;;;;;;;7.70;76.90;;;;;;6338028;22;19919;-77
2024/03/11 06:25:07;;;;;;;;;;;7.70;76.70;;;;;;6338385;22;20315;-77
2024/03/11 06:27:34;;;;;;;;;;;7.70;76.70;;;;;;6311870;22;19926;-78
2024/03/11 06:30:01;;;;;;;;;;;7.80;76.80;;;;;;6311627;22;19918;-77
2024/03/11 06:32:30;;;;;;;;;;;7.80;76.70;;;;;;6338736;22;20330;-77
2024/03/11 06:34:58;;;;;;;;;;;7.90;76.50;;;;;;6338865;22;19926;-77
2024/03/11 06:37:24;;;;;;;;;;;7.90;76.10;;;;;;6312236;22;19927;-77
2024/03/11 06:39:51;;;;;;;;;;;8.00;76.10;;;;;;6338561;22;19918;-78
2024/03/11 06:42:18;;;;;;;;;;;8.10;76.10;;;;;;6311608;22;20355;-77
2024/03/11 06:44:45;;;;;;;;;;;8.10;75.90;;;;;;6311513;22;19919;-77
2024/03/11 06:47:13;;;;;;;;;;;8.20;75.60;;;;;;6311510;22;19918;-78
2024/03/11 06:49:39;;;;;;;;;;;8.20;75.40;;;;;;6311663;22;19918;-78
2024/03/11 06:52:07;;;;;;;;;;;8.30;75.20;;;;;;6311370;22;19922;-77
2024/03/11 06:54:35;;;;;;;;;;;8.40;75.00;;;;;;6311778;22;19969;-77
2024/03/11 06:57:03;;;;;;;;;;;8.50;74.80;;;;;;6311792;22;19927;-78
2024/03/11 06:59:30;;;;;;;;;;;8.60;74.30;;;;;;6310590;22;19991;-78
2024/03/11 07:01:57;;;;;;;;;;;8.70;74.00;;;;;;6310613;22;20316;-77
2024/03/11 07:04:24;;;;;;;;;;;8.90;73.90;;;;;;6311327;22;19929;-78
2024/03/11 07:06:51;;;;;;;;;;;9.10;73.60;;;;;;6309840;22;19936;-78
2024/03/11 07:09:18;;;;;;;;;;;9.20;73.30;;;;;;6311539;22;19975;-78
2024/03/11 07:11:45;;;;;;;;;;;9.30;72.30;;;;;;6311756;22;19933;-78
2024/03/11 07:14:13;;;;;;;;;;;9.50;72.10;;;;;;6311365;22;19922;-77
2024/03/11 07:16:42;;;;;;;;;;;9.70;71.90;;;;;;6337872;22;20025;-78
2024/03/11 07:19:12;;;;;;;;;;;9.90;71.70;;;;;;6311024;22;19950;-78
2024/03/11 07:21:39;;;;;;;;;;;10.10;70.00;;;;;;6337372;22;19927;-78
2024/03/11 07:24:07;;;;;;;;;;;10.20;69.10;;;;;;6310522;22;19918;-79
2024/03/11 07:26:34;;;;;;;;;;;10.40;68.40;;;;;;6310711;22;19989;-78
2024/03/11 07:29:01;;;;;;;;;;;10.50;67.60;;;;;;6337930;22;19919;-77
2024/03/11 07:31:29;;;;;;;;;;;10.60;67.50;;;;;;6311170;22;19962;-78
2024/03/11 07:33:55;;;;;;;;;;;10.70;67.30;;;;;;6310185;22;19918;-78
2024/03/11 07:36:24;;;;;;;;;;;10.70;67.20;;;;;;6337649;22;19926;-78
2024/03/11 07:38:51;;;;;;;;;;;10.80;67.40;;;;;;6311271;22;19918;-78
2024/03/11 07:41:20;;;;;;;;;;;10.90;66.70;;;;;;6337240;22;19934;-78
2024/03/11 07:43:50;;;;;;;;;;;11.00;66.00;;;;;;6310914;22;19968;-78
2024/03/11 07:46:17;;;;;;;;;;;11.10;65.80;;;;;;6336381;22;19989;-78
2024/03/11 07:48:45;;;;;;;;;;;11.10;65.80;;;;;;6310207;22;19918;-78
2024/03/11 07:51:13;;;;;;;;;;;11.30;65.80;;;;;;6337493;22;19918;-78
2024/03/11 07:53:40;;;;;;;;;;;11.40;65.80;;;;;;6337493;22;20436;-78
2024/03/11 07:56:09;;;;;;;;;;;11.50;65.10;;;;;;6310926;22;19930;-78
2024/03/11 07:58:36;;;;;;;;;;;11.60;64.70;;;;;;6310371;22;19922;-79
2024/03/11 08:01:04;;;;;;;;;;;11.70;64.60;;;;;;6310755;22;19923;-78
2024/03/11 08:03:31;;;;;;;;;;;11.90;64.70;;;;;;6310658;22;20244;-78
2024/03/11 08:05:58;;;;;;;;;;;12.00;64.60;;;;;;6310239;22;19923;-78
2024/03/11 08:08:26;;;;;;;;;;;12.10;63.90;;;;;;6337389;22;19919;-78
2024/03/11 08:10:53;;;;;;;;;;;12.30;63.20;;;;;;6310864;22;19998;-78
2024/03/11 08:13:21;;;;;;;;;;;12.40;62.30;;;;;;6338354;22;19922;-78
2024/03/11 08:15:48;;;;;;;;;;;12.60;61.10;;;;;;6310531;22;19919;-79
2024/03/11 08:18:16;;;;;;;;;;;12.70;60.00;;;;;;6337968;22;19933;-78
2024/03/11 08:20:43;;;;;;;;;;;12.90;60.20;;;;;;6310768;22;20108;-78
2024/03/11 08:23:10;;;;;;;;;;;13.10;59.40;;;;;;6337650;22;20371;-78
2024/03/11 08:25:37;;;;;;;;;;;13.30;59.50;;;;;;6310916;22;20044;-78
2024/03/11 08:28:04;;;;;;;;;;;13.50;59.70;;;;;;6310271;22;20267;-78
2024/03/11 08:30:31;;;;;;;;;;;13.70;59.20;;;;;;6338060;22;20662;-78
2024/03/11 08:32:59;;;;;;;;;;;14.00;58.80;;;;;;6311307;22;19927;-78
2024/03/11 08:35:26;;;;;;;;;;;14.30;58.20;;;;;;6310817;22;19923;-78
2024/03/11 08:37:54;;;;;;;;;;;14.50;57.00;;;;;;6310366;22;19934;-79
2024/03/11 08:40:22;;;;;;;;;;;14.80;56.00;;;;;;6338325;22;20367;-78
2024/03/11 08:42:52;;;;;;;;;;;15.10;54.20;;;;;;6337800;22;20005;-79
2024/03/11 08:45:22;;;;;;;;;;;15.50;54.60;;;;;;6310535;22;19927;-79
2024/03/11 08:47:49;;;;;;;;;;;16.50;53.60;;;;;;6310354;22;19922;-79
2024/03/11 08:50:16;;;;;;;;;;;17.60;50.10;;;;;;6310472;22;19929;-79
2024/03/11 08:52:46;;;;;;;;;;;18.30;47.40;;;;;;6336648;22;20299;-79
2024/03/11 08:55:15;;;;;;;;;;;19.00;45.80;;;;;;6337317;22;20235;-79
2024/03/11 08:57:42;;;;;;;;;;;19.40;45.20;;;;;;6337418;22;20005;-79
2024/03/11 09:00:11;;;;;;;;;;;19.90;44.50;;;;;;6338911;22;19926;-79
2024/03/11 09:02:38;;;;;;;;;;;20.80;44.40;;;;;;6311959;22;19937;-79
2024/03/11 09:05:10;;;;;;;;;;;22.10;41.70;;;;;;6311680;22;19922;-79
2024/03/11 09:07:40;;;;;;;;;;;23.50;40.20;;;;;;6339635;22;20593;-79
2024/03/11 09:10:07;;;;;;;;;;;24.00;36.60;;;;;;6312352;22;19922;-79
2024/03/11 09:12:35;;;;;;;;;;;23.80;35.60;;;;;;6338663;22;19919;-79
2024/03/11 09:15:01;;;;;;;;;;;23.50;36.30;;;;;;6338768;22;19950;-79
2024/03/11 09:17:28;;;;;;;;;;;24.00;36.60;;;;;;6311524;22;20324;-79
2024/03/11 09:19:57;;;;;;;;;;;24.80;34.60;;;;;;6338763;22;19983;-79
2024/03/11 09:22:26;;;;;;;;;;;25.00;35.50;;;;;;6338660;22;20288;-79
2024/03/11 09:24:53;;;;;;;;;;;25.10;33.60;;;;;;6338924;22;19944;-79
2024/03/11 09:27:20;;;;;;;;;;;24.80;34.00;;;;;;6311669;22;20278;-79
2024/03/11 09:29:48;;;;;;;;;;;25.30;34.30;;;;;;6338558;22;19918;-79
2024/03/11 09:32:15;;;;;;;;;;;25.50;32.70;;;;;;6338933;22;19941;-79
2024/03/11 09:34:42;;;;;;;;;;;25.80;32.80;;;;;;6311913;22;20220;-79
2024/03/11 09:37:09;;;;;;;;;;;26.00;31.60;;;;;;6311770;22;19919;-79
2024/03/11 09:39:36;;;;;;;;;;;26.50;31.70;;;;;;6311709;22;20219;-79
2024/03/11 09:42:05;;;;;;;;;;;27.00;31.40;;;;;;6338827;22;19925;-79
2024/03/11 09:44:32;;;;;;;;;;;27.00;30.60;;;;;;6338420;22;19925;-79
2024/03/11 09:47:00;;;;;;;;;;;27.00;30.20;;;;;;6311795;22;19972;-79
2024/03/11 09:49:31;;;;;;;;;;;26.90;29.90;;;;;;6311254;22;19926;-79
2024/03/11 09:52:01;;;;;;;;;;;26.70;30.70;;;;;;6338523;22;19954;-79
2024/03/11 09:54:28;;;;;;;;;;;26.40;30.10;;;;;;6311426;22;19922;-79
2024/03/11 09:56:56;;;;;;;;;;;26.00;30.60;;;;;;6311448;22;20227;-79
2024/03/11 09:59:27;;;;;;;;;;;25.70;30.70;;;;;;6311270;22;20349;-79
2024/03/11 10:01:57;;;;;;;;;;;25.30;31.60;;;;;;6311081;22;20205;-79
2024/03/11 10:04:25;;;;;;;;;;;24.70;31.40;;;;;;6311701;22;19919;-79
2024/03/11 10:06:59;;;;;;;;;;;24.00;32.20;;;;;;6338173;22;19949;-79
2024/03/11 10:09:28;;;;;;;;;;;22.90;33.40;;;;;;6310828;22;19944;-79
2024/03/11 10:12:08;;;;;;;;;;;21.90;35.20;;;;;;6311246;22;19919;-79
2024/03/11 10:14:39;;;;;;;;;;;21.20;36.30;;;;;;6338239;22;19944;-79
2024/03/11 10:17:24;;;;;;;;;;;20.80;37.80;;;;;;6310930;22;19926;-79
2024/03/11 10:19:56;;;;;;;;;;;20.50;38.00;;;;;;6338221;22;20382;-79
2024/03/11 10:22:23;;;;;;;;;;;20.00;38.10;;;;;;6311303;22;19968;-79
2024/03/11 10:25:00;;;;;;;;;;;19.50;38.60;;;;;;6337683;22;19923;-79
2024/03/11 10:27:40;;;;;;;;;;;19.00;39.70;;;;;;6310940;22;19918;-79
2024/03/11 10:30:20;;;;;;;;;;;18.60;41.70;;;;;;6338215;22;19942;-79
2024/03/11 10:32:57;;;;;;;;;;;18.30;41.70;;;;;;6338310;22;19918;-79
2024/03/11 10:35:26;;;;;;;;;;;17.90;41.90;;;;;;6311119;22;20001;-79
2024/03/11 10:38:06;;;;;;;;;;;17.70;42.50;;;;;;6311172;22;19922;-79
2024/03/11 10:40:33;;;;;;;;;;;17.50;42.60;;;;;;6310960;22;19922;-79
2024/03/11 10:43:18;;;;;;;;;;;17.40;43.50;;;;;;6310620;22;19922;-79
2024/03/11 10:45:47;;;;;;;;;;;17.60;44.70;;;;;;6338166;22;19979;-79
2024/03/11 10:48:15;;;;;;;;;;;17.60;43.20;;;;;;6310949;22;19922;-79
2024/03/11 10:50:42;;;;;;;;;;;17.70;43.10;;;;;;6338022;22;19977;-79
2024/03/11 10:53:18;;;;;;;;;;;17.70;42.80;;;;;;6338150;22;19919;-79
2024/03/11 10:55:46;;;;;;;;;;;17.60;42.90;;;;;;6337493;22;19919;-79
2024/03/11 10:58:15;;;;;;;;;;;17.50;42.50;;;;;;6311096;22;20355;-79
2024/03/11 11:00:44;;;;;;;;;;;17.50;43.60;;;;;;6310576;22;19922;-79
2024/03/11 11:03:14;;;;;;;;;;;17.40;43.30;;;;;;6310468;22;19948;-79
2024/03/11 11:06:14;;;;;;;;;;;17.30;44.20;;;;;;6310908;22;19922;-79
2024/03/11 11:08:46;;;;;;;;;;;17.10;43.60;;;;;;6309729;22;20379;-79
2024/03/11 11:11:17;;;;;;;;;;;17.00;44.20;;;;;;6337948;22;19919;-79
2024/03/11 11:13:45;;;;;;;;;;;16.90;44.30;;;;;;6337886;22;19961;-79
2024/03/11 11:16:14;;;;;;;;;;;16.90;44.60;;;;;;6310595;22;20218;-79
2024/03/11 11:18:41;;;;;;;;;;;16.80;44.70;;;;;;6337927;22;19923;-79
2024/03/11 11:21:10;;;;;;;;;;;16.50;45.50;;;;;;6310822;22;19961;-79
2024/03/11 11:23:41;;;;;;;;;;;16.50;47.00;;;;;;6337508;22;19969;-78
2024/03/11 11:26:08;;;;;;;;;;;16.50;47.10;;;;;;6337782;22;19965;-79
2024/03/11 11:28:40;;;;;;;;;;;16.50;46.50;;;;;;6309747;22;19948;-79
2024/03/11 11:31:13;;;;;;;;;;;16.40;45.90;;;;;;6338294;22;19984;-79
2024/03/11 11:33:46;;;;;;;;;;;16.10;46.40;;;;;;6337304;22;20457;-79
2024/03/11 11:36:36;;;;;;;;;;;15.90;47.10;;;;;;6310821;22;19929;-79
2024/03/11 11:39:13;;;;;;;;;;;15.80;47.70;;;;;;6337316;22;19929;-79
2024/03/11 11:41:43;;;;;;;;;;;15.70;46.80;;;;;;6310517;22;19979;-79
2024/03/11 11:44:09;;;;;;;;;;;15.50;46.70;;;;;;6310396;22;19926;-79
2024/03/11 11:46:42;;;;;;;;;;;15.30;46.90;;;;;;6310711;22;19919;-79
2024/03/11 11:49:19;;;;;;;;;;;15.10;47.10;;;;;;6310172;22;19929;-79
2024/03/11 11:51:46;;;;;;;;;;;15.00;47.10;;;;;;6337510;22;19933;-79
2024/03/11 11:54:25;;;;;;;;;;;15.00;47.20;;;;;;6311318;22;20219;-80
2024/03/11 11:57:04;;;;;;;;;;;15.00;47.60;;;;;;6337258;22;19962;-79
2024/03/11 11:59:37;;;;;;;;;;;14.90;48.10;;;;;;6310265;22;20361;-80
2024/03/11 12:02:05;;;;;;;;;;;14.80;48.10;;;;;;6336852;22;19940;-80
2024/03/11 12:04:33;;;;;;;;;;;14.90;48.50;;;;;;6283602;22;20732;-80
2024/03/11 12:07:00;;;;;;;;;;;15.00;49.10;;;;;;6337617;22;19980;-81
2024/03/11 12:09:29;;;;;;;;;;;15.10;49.30;;;;;;6310613;22;19922;-80
2024/03/11 12:11:57;;;;;;;;;;;15.20;49.00;;;;;;6310190;22;19919;-80
2024/03/11 12:14:24;;;;;;;;;;;15.30;48.50;;;;;;6336962;22;19918;-80
2024/03/11 12:17:04;;;;;;;;;;;15.30;48.80;;;;;;6310121;22;20361;-80
2024/03/11 12:19:32;;;;;;;;;;;15.40;48.60;;;;;;6310453;22;19923;-80
2024/03/11 12:21:59;;;;;;;;;;;15.30;47.60;;;;;;6310474;22;19922;-80
2024/03/11 12:24:26;;;;;;;;;;;15.30;47.70;;;;;;6309809;22;19922;-80
2024/03/11 12:26:56;;;;;;;;;;;15.30;47.90;;;;;;6337421;22;20219;-80
2024/03/11 12:29:23;;;;;;;;;;;15.20;47.80;;;;;;6304228;22;19941;-80
2024/03/11 12:31:56;;;;;;;;;;;15.10;48.00;;;;;;6304607;22;19919;-80
2024/03/11 12:34:24;;;;;;;;;;;15.10;48.20;;;;;;6306470;22;19919;-78
2024/03/11 12:36:52;;;;;;;;;;;15.00;48.20;;;;;;6306505;22;19984;-80
2024/03/11 12:42:24;;;;;;;;;;;14.70;49.00;;;;;;6294407;22;19919;-79
2024/03/11 12:44:59;;;;;;;;;;;14.60;49.40;;;;;;6307730;22;19919;-80
2024/03/11 12:47:28;;;;;;;;;;;14.60;49.00;;;;;;6307903;22;19927;-80
2024/03/11 12:49:55;;;;;;;;;;;14.40;48.50;;;;;;6307997;22;20253;-80
2024/03/11 12:52:23;;;;;;;;;;;14.40;48.80;;;;;;6307027;22;19927;-80
2024/03/11 12:54:50;;;;;;;;;;;14.30;49.00;;;;;;6306959;22;19929;-79
2024/03/11 12:57:18;;;;;;;;;;;14.20;49.00;;;;;;6306386;22;19993;-79
2024/03/11 12:59:59;;;;;;;;;;;14.20;49.40;;;;;;6306659;22;20223;-80
2024/03/11 13:02:27;;;;;;;;;;;14.10;49.40;;;;;;6306826;22;19986;-80
2024/03/11 13:04:54;;;;;;;;;;;14.00;49.50;;;;;;6306897;22;19919;-80
2024/03/11 13:07:23;;;;;;;;;;;14.00;49.60;;;;;;6306870;22;19919;-80
2024/03/11 13:09:53;;;;;;;;;;;13.90;49.60;;;;;;6306811;22;20033;-80
2024/03/11 13:12:21;;;;;;;;;;;13.80;49.60;;;;;;6306218;22;20334;-79
2024/03/11 13:14:49;;;;;;;;;;;13.80;49.60;;;;;;6307573;22;19951;-80
2024/03/11 13:17:18;;;;;;;;;;;13.80;49.80;;;;;;6307261;22;19923;-79
2024/03/11 13:19:46;;;;;;;;;;;13.80;49.80;;;;;;6306241;22;20209;-79
2024/03/11 13:22:22;;;;;;;;;;;13.80;50.20;;;;;;6306403;22;19926;-80
2024/03/11 13:24:53;;;;;;;;;;;13.70;50.40;;;;;;6306543;22;19919;-78
2024/03/11 13:27:21;;;;;;;;;;;13.80;50.30;;;;;;6310027;22;19929;-78
2024/03/11 13:29:49;;;;;;;;;;;13.70;50.20;;;;;;6338523;22;20360;-78
2024/03/11 13:32:16;;;;;;;;;;;13.70;51.10;;;;;;6311960;22;19918;-77
2024/03/11 13:34:43;;;;;;;;;;;13.70;50.70;;;;;;6311696;22;19918;-77
2024/03/11 13:37:09;;;;;;;;;;;13.70;50.80;;;;;;6312133;22;19930;-77
2024/03/11 13:39:36;;;;;;;;;;;13.60;50.70;;;;;;6311567;22;19922;-78
2024/03/11 13:42:08;;;;;;;;;;;13.50;50.90;;;;;;6312094;22;19961;-77
2024/03/11 13:44:34;;;;;;;;;;;13.50;51.00;;;;;;6311237;22;19918;-80
2024/03/11 13:47:01;;;;;;;;;;;13.40;51.20;;;;;;6338924;22;19934;-77
2024/03/11 13:49:28;;;;;;;;;;;13.40;51.30;;;;;;6311678;22;19942;-78
2024/03/11 13:51:55;;;;;;;;;;;13.40;51.40;;;;;;6311819;22;19923;-78
2024/03/11 13:54:23;;;;;;;;;;;13.40;51.50;;;;;;6312105;22;19919;-77
2024/03/11 13:56:50;;;;;;;;;;;13.50;51.90;;;;;;6311631;22;19918;-80
2024/03/11 13:59:20;;;;;;;;;;;13.50;52.20;;;;;;6338692;22;19922;-80
2024/03/11 14:01:50;;;;;;;;;;;13.60;52.20;;;;;;6311272;22;19919;-76
2024/03/11 14:04:17;;;;;;;;;;;13.60;51.90;;;;;;6311819;22;19922;-78
2024/03/11 14:06:46;;;;;;;;;;;13.70;51.50;;;;;;6338331;22;19923;-78
2024/03/11 14:09:17;;;;;;;;;;;13.70;51.80;;;;;;6338742;22;19929;-78
2024/03/11 14:11:44;;;;;;;;;;;13.70;51.10;;;;;;6311556;22;19918;-78
2024/03/11 14:14:14;;;;;;;;;;;13.70;51.80;;;;;;6311092;22;19919;-78
2024/03/11 14:16:46;;;;;;;;;;;13.80;51.30;;;;;;6311708;22;19937;-77
2024/03/11 14:19:15;;;;;;;;;;;13.70;50.80;;;;;;6312132;22;19983;-79
2024/03/11 14:21:42;;;;;;;;;;;13.80;50.90;;;;;;6308544;22;19922;-77
2024/03/11 14:24:09;;;;;;;;;;;13.70;50.90;;;;;;6310123;22;19918;-78
2024/03/11 14:26:37;;;;;;;;;;;13.70;51.10;;;;;;6310614;22;19928;-78
2024/03/11 14:29:12;;;;;;;;;;;13.70;51.30;;;;;;6310948;22;19923;-78
2024/03/11 14:31:40;;;;;;;;;;;13.60;51.20;;;;;;6338282;22;19928;-77